Time;durP1;ratioP1;P1;durP2;ratioP2;P2;SDS_P1;SDS_P2;PMS_P1;PMS_P2;Temp;Humidity;BMP_temperature;BMP_pressure;BME280_temperature;BME280_humidity;BME280_pressure;Samples;Min_cycle;Max_cycle;Signal;HPM_P1;HPM_P2
2021/05/29 00:00:11;;;;;;;4.00;2.93;;;22.30;49.40;;;;;;4991709;28;20416;-85
2021/05/29 00:02:37;;;;;;;3.43;2.40;;;22.30;49.50;;;;;;5009138;28;20552;-84
2021/05/29 00:05:05;;;;;;;3.10;2.80;;;22.40;49.60;;;;;;5008767;28;20903;-85
2021/05/29 00:07:32;;;;;;;4.30;2.80;;;22.40;49.60;;;;;;4991568;28;20420;-85
2021/05/29 00:09:58;;;;;;;2.73;2.50;;;22.40;49.60;;;;;;5008003;28;20412;-86
2021/05/29 00:12:24;;;;;;;3.47;2.20;;;22.40;49.60;;;;;;4991957;28;20467;-86
2021/05/29 00:14:51;;;;;;;2.50;2.20;;;22.40;49.60;;;;;;5008995;28;20809;-86
2021/05/29 00:17:18;;;;;;;2.87;2.47;;;22.40;49.60;;;;;;4991731;28;20181;-85
2021/05/29 00:19:45;;;;;;;3.10;2.20;;;22.40;49.60;;;;;;4991422;28;20455;-85
2021/05/29 00:22:10;;;;;;;3.03;2.40;;;22.40;49.60;;;;;;5008935;28;20503;-85
2021/05/29 00:24:39;;;;;;;2.53;2.33;;;22.30;49.60;;;;;;5007933;28;20893;-85
2021/05/29 00:27:05;;;;;;;3.20;2.90;;;22.40;49.70;;;;;;5008903;28;20177;-85
2021/05/29 00:29:31;;;;;;;3.07;2.77;;;22.30;49.60;;;;;;4991486;28;20519;-85
2021/05/29 00:31:56;;;;;;;2.77;2.47;;;22.30;49.70;;;;;;4992139;28;20428;-85
2021/05/29 00:34:24;;;;;;;2.50;2.20;;;22.30;49.60;;;;;;4992766;28;20424;-86
2021/05/29 00:36:50;;;;;;;3.47;3.17;;;22.30;49.60;;;;;;5008256;28;20180;-85
2021/05/29 00:39:16;;;;;;;2.50;2.30;;;22.30;49.60;;;;;;4991328;28;20419;-85
2021/05/29 00:41:41;;;;;;;2.60;1.93;;;22.30;49.70;;;;;;4991439;28;20201;-85
2021/05/29 00:44:07;;;;;;;2.77;2.47;;;22.30;49.80;;;;;;4991536;28;20189;-85
2021/05/29 00:46:33;;;;;;;2.80;2.23;;;22.30;49.70;;;;;;4991685;28;20169;-85
2021/05/29 00:48:59;;;;;;;2.77;2.30;;;22.30;49.70;;;;;;4991817;28;20177;-85
2021/05/29 00:51:25;;;;;;;2.90;2.40;;;22.30;49.70;;;;;;4990622;28;20268;-85
2021/05/29 00:53:53;;;;;;;2.33;2.13;;;22.30;49.70;;;;;;5008741;28;20261;-85
2021/05/29 00:56:18;;;;;;;2.20;2.00;;;22.30;49.80;;;;;;5010351;28;20419;-85
2021/05/29 00:58:44;;;;;;;3.60;3.30;;;22.30;49.80;;;;;;5010686;28;20466;-85
2021/05/29 01:01:10;;;;;;;2.97;2.70;;;22.30;49.80;;;;;;5011593;28;20176;-84
2021/05/29 01:03:39;;;;;;;3.10;2.63;;;22.30;49.80;;;;;;5013101;28;20188;-84
2021/05/29 01:06:12;;;;;;;2.83;2.10;;;22.30;49.70;;;;;;5013657;28;20184;-84
2021/05/29 01:08:40;;;;;;;2.60;2.40;;;22.40;49.80;;;;;;5013603;28;20430;-84
2021/05/29 01:11:08;;;;;;;2.50;2.30;;;22.40;49.70;;;;;;5031483;28;20479;-84
2021/05/29 01:13:35;;;;;;;3.03;2.67;;;22.40;49.70;;;;;;5014049;28;20535;-84
2021/05/29 01:16:07;;;;;;;2.90;2.10;;;22.40;49.60;;;;;;5014855;28;20419;-84
2021/05/29 01:18:47;;;;;;;3.23;2.30;;;22.40;49.60;;;;;;4991238;28;20469;-85
2021/05/29 01:21:13;;;;;;;2.43;2.00;;;22.40;49.60;;;;;;4991165;28;20449;-85
2021/05/29 01:23:38;;;;;;;2.80;2.43;;;22.40;49.60;;;;;;4991523;28;20453;-85
2021/05/29 01:26:04;;;;;;;2.80;2.50;;;22.40;49.50;;;;;;4992659;28;20197;-85
2021/05/29 01:28:31;;;;;;;2.93;2.57;;;22.40;49.50;;;;;;4990905;28;20273;-85
2021/05/29 01:31:01;;;;;;;2.43;2.20;;;22.40;49.50;;;;;;4991661;28;20217;-84
2021/05/29 01:33:34;;;;;;;2.40;2.20;;;22.50;49.50;;;;;;4989763;28;20452;-84
2021/05/29 01:36:06;;;;;;;2.37;2.17;;;22.50;49.50;;;;;;4990768;28;20424;-84
2021/05/29 01:38:33;;;;;;;2.50;2.30;;;22.50;49.60;;;;;;4990258;28;20449;-84
2021/05/29 01:41:07;;;;;;;2.63;2.10;;;22.50;49.50;;;;;;4990612;28;20432;-84
2021/05/29 01:43:37;;;;;;;2.90;2.40;;;22.50;49.60;;;;;;4990129;28;20483;-84
2021/05/29 01:46:04;;;;;;;2.80;2.20;;;22.40;49.50;;;;;;4989385;28;20421;-85
2021/05/29 01:48:36;;;;;;;2.63;2.30;;;22.40;49.60;;;;;;4993119;28;20930;-85
2021/05/29 01:51:02;;;;;;;2.87;2.47;;;22.40;49.60;;;;;;4993248;28;20417;-85
2021/05/29 01:53:29;;;;;;;3.27;2.07;;;22.40;49.60;;;;;;4993269;28;20468;-85
2021/05/29 01:55:55;;;;;;;2.60;2.10;;;22.40;49.60;;;;;;5010036;28;20189;-85
2021/05/29 01:58:22;;;;;;;2.30;2.00;;;22.40;49.60;;;;;;5034318;28;20442;-84
2021/05/29 02:00:48;;;;;;;2.90;2.40;;;22.40;49.60;;;;;;5016649;28;20188;-84
2021/05/29 02:03:14;;;;;;;2.37;2.17;;;22.40;49.60;;;;;;5017005;28;20427;-84
2021/05/29 02:05:41;;;;;;;3.23;2.40;;;22.40;49.60;;;;;;5017843;28;20243;-85
2021/05/29 02:08:09;;;;;;;3.07;2.60;;;22.40;49.60;;;;;;5033391;28;20434;-85
2021/05/29 02:10:37;;;;;;;3.27;2.40;;;22.40;49.70;;;;;;5017408;28;20514;-84
2021/05/29 02:13:06;;;;;;;3.30;2.40;;;22.40;49.70;;;;;;5016816;28;20462;-85
2021/05/29 02:15:35;;;;;;;2.67;2.17;;;22.40;49.70;;;;;;5034770;28;20449;-83
2021/05/29 02:18:11;;;;;;;2.20;2.00;;;22.40;49.70;;;;;;5025508;28;20412;-84
2021/05/29 02:20:50;;;;;;;2.57;2.30;;;22.40;49.70;;;;;;4997410;28;20794;-84
2021/05/29 02:23:19;;;;;;;3.13;2.40;;;22.40;49.80;;;;;;4997668;28;20450;-85
2021/05/29 02:25:47;;;;;;;2.00;1.80;;;22.40;49.80;;;;;;4997796;28;20428;-85
2021/05/29 02:28:13;;;;;;;3.10;2.23;;;22.40;49.80;;;;;;4997839;28;20420;-85
2021/05/29 02:30:39;;;;;;;2.90;2.20;;;22.30;49.70;;;;;;4998073;28;20432;-85
2021/05/29 02:33:06;;;;;;;2.47;2.27;;;22.40;49.80;;;;;;4997297;28;20464;-85
2021/05/29 02:35:33;;;;;;;2.60;2.20;;;22.30;50.30;;;;;;4996830;28;20841;-85
2021/05/29 02:38:00;;;;;;;4.40;2.60;;;22.30;49.80;;;;;;5014268;28;20416;-85
2021/05/29 02:40:26;;;;;;;1.93;1.77;;;22.30;49.80;;;;;;4996876;28;20435;-85
2021/05/29 02:42:51;;;;;;;3.07;2.40;;;22.30;49.80;;;;;;5012612;28;20423;-85
2021/05/29 02:45:19;;;;;;;2.30;2.10;;;22.40;49.90;;;;;;5011511;28;20184;-84
2021/05/29 02:47:46;;;;;;;2.00;1.70;;;22.30;50.40;;;;;;5010988;28;20411;-84
2021/05/29 02:50:14;;;;;;;2.13;1.93;;;22.30;49.80;;;;;;5011368;28;20412;-84
2021/05/29 02:52:41;;;;;;;2.00;1.87;;;22.30;49.80;;;;;;5009642;28;20452;-84
2021/05/29 02:55:12;;;;;;;2.50;2.30;;;22.30;49.90;;;;;;4993484;28;20409;-84
2021/05/29 02:57:39;;;;;;;2.60;2.23;;;22.20;49.80;;;;;;5011156;28;20385;-84
2021/05/29 03:00:10;;;;;;;2.73;2.53;;;22.30;49.90;;;;;;4993695;28;20420;-84
2021/05/29 03:02:37;;;;;;;2.30;2.10;;;22.30;49.90;;;;;;5011139;28;20408;-84
2021/05/29 03:05:05;;;;;;;2.57;2.30;;;22.30;49.90;;;;;;5011356;28;20423;-84
2021/05/29 03:07:31;;;;;;;2.10;1.70;;;22.20;49.80;;;;;;5013543;28;20417;-85
2021/05/29 03:09:59;;;;;;;2.73;2.20;;;22.30;49.90;;;;;;4995253;28;20497;-84
2021/05/29 03:12:28;;;;;;;1.97;1.70;;;22.30;49.90;;;;;;4994378;28;20276;-84
2021/05/29 03:14:58;;;;;;;1.93;1.67;;;22.30;49.90;;;;;;5013220;28;20408;-84
2021/05/29 03:17:28;;;;;;;2.30;2.10;;;22.30;49.90;;;;;;4994880;28;20420;-84
2021/05/29 03:19:57;;;;;;;6.03;2.37;;;22.30;49.80;;;;;;5011570;28;20480;-85
2021/05/29 03:22:27;;;;;;;2.30;2.10;;;22.30;49.80;;;;;;5011918;28;20448;-85
2021/05/29 03:24:55;;;;;;;2.13;1.93;;;22.30;49.80;;;;;;4994240;28;20448;-84
2021/05/29 03:27:28;;;;;;;2.50;2.30;;;22.30;49.80;;;;;;5010475;28;20416;-84
2021/05/29 03:29:56;;;;;;;3.10;2.10;;;22.30;49.80;;;;;;5010035;28;20400;-84
2021/05/29 03:32:22;;;;;;;1.77;1.67;;;22.30;49.80;;;;;;4993827;28;20479;-84
2021/05/29 03:34:47;;;;;;;2.40;2.20;;;22.30;50.40;;;;;;5011550;28;20428;-84
2021/05/29 03:37:13;;;;;;;2.30;1.97;;;22.30;49.80;;;;;;4994399;28;20249;-84
2021/05/29 03:39:40;;;;;;;1.83;1.70;;;22.30;49.80;;;;;;4994964;28;20229;-85
2021/05/29 03:42:07;;;;;;;2.30;1.90;;;22.30;49.80;;;;;;4994243;28;20177;-84
2021/05/29 03:44:32;;;;;;;1.80;1.70;;;22.30;49.80;;;;;;5012771;28;20415;-85
2021/05/29 03:46:58;;;;;;;2.40;1.90;;;22.30;49.80;;;;;;4996133;28;20420;-84
2021/05/29 03:49:24;;;;;;;2.70;2.00;;;22.30;50.30;;;;;;4995097;28;20184;-85
2021/05/29 03:51:50;;;;;;;2.20;2.00;;;22.30;49.80;;;;;;4995946;28;20188;-84
2021/05/29 03:54:16;;;;;;;4.27;2.40;;;22.40;49.90;;;;;;4994594;28;20205;-85
2021/05/29 03:56:41;;;;;;;2.70;2.23;;;22.30;49.80;;;;;;4995113;28;20176;-85
2021/05/29 03:59:13;;;;;;;3.00;1.90;;;22.30;49.80;;;;;;5015068;28;20451;-85
2021/05/29 04:01:39;;;;;;;2.07;1.87;;;22.30;49.80;;;;;;4998065;28;20412;-85
2021/05/29 04:04:07;;;;;;;2.03;1.83;;;22.30;49.80;;;;;;5013873;28;20420;-85
2021/05/29 04:06:33;;;;;;;2.17;1.97;;;22.30;49.80;;;;;;4995769;28;20416;-85
2021/05/29 04:08:58;;;;;;;2.43;2.20;;;22.30;49.80;;;;;;5013805;28;20396;-85
2021/05/29 04:11:24;;;;;;;2.30;2.10;;;22.30;49.80;;;;;;5013207;28;20224;-85
2021/05/29 04:13:50;;;;;;;2.50;1.90;;;22.30;49.80;;;;;;5014350;28;20213;-85
2021/05/29 04:16:16;;;;;;;2.27;1.93;;;22.30;49.80;;;;;;4996035;28;20233;-85
2021/05/29 04:18:42;;;;;;;2.07;1.80;;;22.30;49.80;;;;;;5012376;28;20179;-85
2021/05/29 04:21:08;;;;;;;2.13;1.93;;;22.30;49.80;;;;;;4994431;28;20252;-85
2021/05/29 04:23:33;;;;;;;2.60;2.10;;;22.30;49.80;;;;;;5010530;28;20176;-85
2021/05/29 04:25:59;;;;;;;1.87;1.67;;;22.30;49.70;;;;;;4994962;28;20217;-85
2021/05/29 04:28:25;;;;;;;1.70;1.50;;;22.30;49.70;;;;;;5012524;28;20240;-85
2021/05/29 04:30:51;;;;;;;2.43;1.93;;;22.30;49.70;;;;;;4994179;28;20216;-85
2021/05/29 04:33:16;;;;;;;2.10;1.90;;;22.40;49.70;;;;;;5011699;28;20292;-85
2021/05/29 04:35:44;;;;;;;1.97;1.73;;;22.30;49.60;;;;;;5012287;28;20257;-85
2021/05/29 04:38:10;;;;;;;2.03;1.80;;;22.40;49.70;;;;;;5011247;28;20191;-85
2021/05/29 04:40:36;;;;;;;1.70;1.60;;;22.40;49.60;;;;;;4994024;28;20430;-85
2021/05/29 04:43:02;;;;;;;1.70;1.60;;;22.40;49.60;;;;;;4995279;28;20420;-85
2021/05/29 04:45:28;;;;;;;1.97;1.70;;;22.40;49.60;;;;;;4995308;28;20187;-85
2021/05/29 04:47:54;;;;;;;1.90;1.80;;;22.40;49.60;;;;;;4995725;28;20322;-85
2021/05/29 04:50:21;;;;;;;1.83;1.73;;;22.40;49.50;;;;;;4996319;28;20447;-85
2021/05/29 04:52:47;;;;;;;2.00;1.80;;;22.50;49.60;;;;;;4996691;28;20468;-85
2021/05/29 04:55:16;;;;;;;2.20;2.00;;;22.40;49.50;;;;;;4996253;28;20412;-85
2021/05/29 04:57:42;;;;;;;1.93;1.83;;;22.40;49.50;;;;;;4995637;28;20427;-85
2021/05/29 05:00:13;;;;;;;2.07;1.87;;;22.50;49.50;;;;;;5012998;28;20416;-85
2021/05/29 05:02:42;;;;;;;3.73;1.80;;;22.50;49.50;;;;;;5013480;28;20412;-85
2021/05/29 05:05:08;;;;;;;2.60;2.03;;;22.50;49.50;;;;;;5012796;28;20420;-85
2021/05/29 05:07:34;;;;;;;2.27;2.07;;;22.50;49.50;;;;;;5012968;28;20416;-85
2021/05/29 05:10:00;;;;;;;2.00;1.80;;;22.50;49.50;;;;;;5012673;28;20400;-85
2021/05/29 05:12:26;;;;;;;2.57;2.00;;;22.50;49.50;;;;;;4995658;28;20467;-85
2021/05/29 05:14:52;;;;;;;1.73;1.50;;;22.50;49.50;;;;;;4995698;28;20412;-85
2021/05/29 05:17:17;;;;;;;2.10;1.90;;;22.50;49.50;;;;;;4994963;28;20245;-85
2021/05/29 05:19:43;;;;;;;1.70;1.60;;;22.50;49.50;;;;;;4995182;28;20168;-85
2021/05/29 05:22:09;;;;;;;2.30;1.80;;;22.50;49.50;;;;;;4996864;28;20157;-85
2021/05/29 05:24:35;;;;;;;2.10;1.90;;;22.50;49.50;;;;;;5017287;28;20180;-85
2021/05/29 05:27:01;;;;;;;1.80;1.67;;;22.50;49.50;;;;;;4999449;28;20177;-85
2021/05/29 05:29:26;;;;;;;2.20;2.00;;;22.50;49.50;;;;;;5017185;28;20179;-85
2021/05/29 05:31:52;;;;;;;1.90;1.40;;;22.60;49.50;;;;;;4999965;28;20197;-85
2021/05/29 05:34:21;;;;;;;3.13;1.70;;;22.50;49.50;;;;;;5016589;28;20287;-85
2021/05/29 05:36:47;;;;;;;1.93;1.70;;;22.60;49.60;;;;;;4998896;28;20196;-85
2021/05/29 05:39:13;;;;;;;1.90;1.70;;;22.60;49.60;;;;;;4999471;28;20420;-85
2021/05/29 05:41:40;;;;;;;1.60;1.30;;;22.60;49.60;;;;;;4979326;28;20421;-85
2021/05/29 05:44:08;;;;;;;1.90;1.80;;;22.60;49.60;;;;;;5012214;28;20472;-85
2021/05/29 05:46:34;;;;;;;1.87;1.67;;;22.60;49.60;;;;;;4998356;28;20430;-85
2021/05/29 05:49:03;;;;;;;2.23;1.67;;;22.60;49.50;;;;;;4998491;28;20419;-85
2021/05/29 05:51:31;;;;;;;1.60;1.50;;;22.60;49.50;;;;;;4998117;28;20456;-85
2021/05/29 05:53:57;;;;;;;1.63;1.53;;;22.60;49.50;;;;;;4998146;28;20463;-85
2021/05/29 05:56:26;;;;;;;1.60;1.50;;;22.60;49.60;;;;;;4998741;28;20428;-85
2021/05/29 05:58:54;;;;;;;1.63;1.53;;;22.60;49.50;;;;;;4998589;28;20412;-85
2021/05/29 06:01:25;;;;;;;2.07;1.73;;;22.70;49.60;;;;;;4998860;28;20439;-85
2021/05/29 06:03:55;;;;;;;1.60;1.50;;;22.70;49.60;;;;;;4998047;28;20428;-85
2021/05/29 06:06:21;;;;;;;1.90;1.70;;;22.60;49.50;;;;;;4999795;28;20488;-85
2021/05/29 06:08:47;;;;;;;1.73;1.47;;;22.60;49.50;;;;;;4998604;28;20438;-83
2021/05/29 06:11:13;;;;;;;2.60;1.90;;;22.60;49.50;;;;;;4982635;28;20482;-85
2021/05/29 06:21:21;;;;;;;1.60;1.50;;;22.70;49.60;;;;;;5014896;28;20474;-85
2021/05/29 06:23:48;;;;;;;2.00;1.70;;;22.70;49.60;;;;;;4997127;28;20239;-85
2021/05/29 06:26:14;;;;;;;1.80;1.63;;;22.70;49.60;;;;;;4997418;28;20463;-85
2021/05/29 06:28:40;;;;;;;1.47;1.37;;;22.70;49.60;;;;;;4997234;28;20491;-84
2021/05/29 06:31:05;;;;;;;1.83;1.50;;;22.70;49.60;;;;;;4996321;28;20181;-85
2021/05/29 06:33:32;;;;;;;1.77;1.53;;;22.70;49.60;;;;;;4995563;28;20228;-85
2021/05/29 06:35:58;;;;;;;2.27;1.80;;;22.70;49.60;;;;;;4995323;28;20627;-85
2021/05/29 06:38:24;;;;;;;1.40;1.27;;;22.70;49.60;;;;;;4994891;28;20468;-89
2021/05/29 06:40:50;;;;;;;1.67;1.57;;;22.70;49.60;;;;;;5014087;28;20427;-84
2021/05/29 06:46:40;;;;;;;2.33;1.30;;;22.80;49.60;;;;;;5013111;28;20384;-83
2021/05/29 06:49:06;;;;;;;4.70;1.87;;;22.70;49.60;;;;;;5010435;28;20404;-83
2021/05/29 06:51:45;;;;;;;1.87;1.53;;;22.70;49.60;;;;;;4990810;28;20455;-82
2021/05/29 06:54:18;;;;;;;1.93;1.70;;;22.70;49.40;;;;;;4992928;28;20822;-82
2021/05/29 06:59:28;;;;;;;1.90;1.57;;;22.70;48.90;;;;;;5008151;28;20463;-83
2021/05/29 07:01:54;;;;;;;2.40;1.90;;;22.60;49.30;;;;;;5007111;28;20449;-83
2021/05/29 07:04:19;;;;;;;3.30;1.87;;;22.60;48.60;;;;;;4990608;28;20184;-83
2021/05/29 07:06:45;;;;;;;2.23;1.83;;;22.60;48.50;;;;;;5009874;28;20181;-82
2021/05/29 07:09:13;;;;;;;2.10;1.90;;;22.60;48.50;;;;;;5007764;28;20184;-83
2021/05/29 07:11:40;;;;;;;2.20;2.00;;;22.60;48.30;;;;;;5007776;28;20216;-82
2021/05/29 07:14:06;;;;;;;2.07;1.53;;;22.60;48.30;;;;;;4990643;28;20478;-82
2021/05/29 07:16:35;;;;;;;4.47;1.90;;;22.60;48.30;;;;;;5007662;28;20417;-82
2021/05/29 07:19:02;;;;;;;2.13;1.90;;;22.60;48.30;;;;;;4990973;28;20503;-83
2021/05/29 07:21:28;;;;;;;2.97;2.00;;;22.60;48.30;;;;;;5006416;28;20429;-82
2021/05/29 07:23:54;;;;;;;2.20;1.90;;;22.60;48.20;;;;;;4989767;28;20435;-82
2021/05/29 07:26:20;;;;;;;2.00;1.80;;;22.60;48.20;;;;;;4990516;28;20424;-83
2021/05/29 07:28:46;;;;;;;3.50;2.03;;;22.60;48.20;;;;;;4990044;28;20436;-83
2021/05/29 07:31:12;;;;;;;1.53;1.37;;;22.60;48.10;;;;;;5008538;28;20659;-83
2021/05/29 07:33:38;;;;;;;1.70;1.60;;;22.60;48.10;;;;;;4990401;28;20468;-83
2021/05/29 07:36:04;;;;;;;3.80;2.40;;;22.50;48.00;;;;;;5007212;28;20173;-83
2021/05/29 07:38:30;;;;;;;3.07;2.63;;;22.50;47.90;;;;;;5008669;28;20169;-83
2021/05/29 07:41:00;;;;;;;1.97;1.80;;;22.60;48.00;;;;;;5007824;28;20440;-82
2021/05/29 07:43:28;;;;;;;2.30;1.80;;;22.50;47.90;;;;;;4991054;28;20430;-82
2021/05/29 07:45:54;;;;;;;2.20;1.80;;;22.50;47.90;;;;;;4990108;28;20431;-83
2021/05/29 07:48:20;;;;;;;1.97;1.77;;;22.50;47.90;;;;;;5008892;28;20409;-83
2021/05/29 07:51:00;;;;;;;2.37;1.93;;;22.50;47.90;;;;;;4990452;28;20201;-82
2021/05/29 07:53:28;;;;;;;2.30;2.10;;;22.50;47.90;;;;;;4988590;28;20196;-83
2021/05/29 07:55:57;;;;;;;1.83;1.53;;;22.50;48.00;;;;;;5007396;28;20627;-83
2021/05/29 07:58:27;;;;;;;1.60;1.40;;;22.50;48.10;;;;;;4989019;28;20420;-84
2021/05/29 08:00:56;;;;;;;1.90;1.60;;;22.50;48.10;;;;;;4988687;28;20424;-84
2021/05/29 08:03:24;;;;;;;2.50;1.60;;;22.60;48.10;;;;;;4989700;28;20420;-84
2021/05/29 08:05:53;;;;;;;1.60;1.20;;;22.50;48.70;;;;;;4989106;28;20435;-83
2021/05/29 08:08:20;;;;;;;1.50;1.23;;;22.50;48.00;;;;;;4972886;28;20423;-84
2021/05/29 08:10:50;;;;;;;2.60;1.60;;;22.50;48.00;;;;;;5006900;28;20408;-84
2021/05/29 08:13:20;;;;;;;2.03;1.43;;;22.50;47.90;;;;;;4989279;28;20502;-84
2021/05/29 08:15:52;;;;;;;1.90;1.50;;;22.50;47.90;;;;;;4972841;28;20419;-84
2021/05/29 08:18:19;;;;;;;2.43;1.30;;;22.50;47.80;;;;;;5006654;28;20504;-84
2021/05/29 08:20:46;;;;;;;1.60;1.50;;;22.50;47.90;;;;;;5005831;28;20419;-84
2021/05/29 08:23:15;;;;;;;2.00;1.33;;;22.50;47.90;;;;;;4989261;28;20922;-83
2021/05/29 08:25:42;;;;;;;2.87;1.70;;;22.50;47.80;;;;;;5006743;28;20412;-82
2021/05/29 08:28:08;;;;;;;2.23;1.20;;;22.50;47.70;;;;;;5005385;28;20436;-82
2021/05/29 08:30:34;;;;;;;2.13;1.40;;;22.50;47.70;;;;;;4989944;28;20412;-82
2021/05/29 08:33:00;;;;;;;1.70;1.30;;;22.50;47.70;;;;;;4989824;28;20220;-82
2021/05/29 08:35:26;;;;;;;2.37;1.40;;;22.50;47.70;;;;;;5006399;28;20259;-83
2021/05/29 08:37:55;;;;;;;2.00;1.67;;;22.50;47.60;;;;;;5007730;28;20409;-83
2021/05/29 08:40:21;;;;;;;1.50;1.33;;;22.50;47.60;;;;;;5007484;28;20424;-83
2021/05/29 08:42:48;;;;;;;2.53;1.50;;;22.50;47.60;;;;;;5006257;28;20432;-83
2021/05/29 08:45:15;;;;;;;1.60;1.30;;;22.50;47.60;;;;;;5007924;28;20502;-83
2021/05/29 08:48:16;;;;;;;1.50;1.40;;;22.50;47.50;;;;;;4990972;28;20420;-84
2021/05/29 08:57:23;;;;;;;2.07;1.30;;;22.50;47.90;;;;;;4935179;29;20387;-84
2021/05/29 08:59:51;;;;;;;2.70;1.30;;;22.40;47.80;;;;;;4934186;29;20907;-84
2021/05/29 09:02:17;;;;;;;4.23;1.77;;;22.50;47.80;;;;;;4934744;29;20187;-84
2021/05/29 09:05:06;;;;;;;1.50;1.40;;;22.50;47.70;;;;;;4933352;29;20430;-84
2021/05/29 09:07:32;;;;;;;3.90;1.70;;;22.50;47.70;;;;;;4932675;29;20187;-84
2021/05/29 09:10:23;;;;;;;1.50;1.23;;;22.50;47.80;;;;;;4933285;29;20415;-83
2021/05/29 09:13:03;;;;;;;1.70;1.40;;;22.50;47.90;;;;;;4935328;29;20574;-81
2021/05/29 09:15:59;;;;;;;2.30;1.40;;;22.50;48.10;;;;;;4935112;29;20424;-82
2021/05/29 09:18:30;;;;;;;1.90;1.70;;;22.60;48.30;;;;;;4930686;29;20439;-82
2021/05/29 09:21:21;;;;;;;1.43;1.27;;;22.50;48.10;;;;;;4932157;29;20419;-84
2021/05/29 09:23:52;;;;;;;1.53;1.30;;;22.60;48.20;;;;;;4932104;29;20426;-84
2021/05/29 09:26:22;;;;;;;1.50;1.40;;;22.50;48.10;;;;;;4932054;29;20459;-84
2021/05/29 09:28:49;;;;;;;1.67;1.50;;;22.50;48.10;;;;;;4980595;28;20518;-85
2021/05/29 09:31:16;;;;;;;2.47;1.47;;;22.60;48.30;;;;;;5011446;28;20852;-85
2021/05/29 09:33:46;;;;;;;1.50;1.30;;;22.50;48.20;;;;;;4979158;28;20463;-85
2021/05/29 09:36:15;;;;;;;2.20;1.40;;;22.50;48.30;;;;;;4996897;28;20416;-84
2021/05/29 09:39:06;;;;;;;1.70;1.37;;;22.60;48.30;;;;;;4995893;28;20477;-84
2021/05/29 09:41:35;;;;;;;1.20;1.10;;;22.60;48.30;;;;;;5013827;28;20411;-84
2021/05/29 09:44:10;;;;;;;1.70;1.27;;;22.60;48.30;;;;;;5014571;28;20415;-84
2021/05/29 09:46:55;;;;;;;4.60;1.53;;;22.60;48.30;;;;;;5014158;28;20790;-84
2021/05/29 09:49:51;;;;;;;2.23;1.37;;;22.60;48.30;;;;;;5014337;28;20577;-83
2021/05/29 09:52:44;;;;;;;2.20;1.40;;;22.60;48.40;;;;;;5012530;28;20823;-83
2021/05/29 09:55:13;;;;;;;1.30;1.03;;;22.60;48.40;;;;;;4996589;28;20419;-83
2021/05/29 09:58:00;;;;;;;1.23;1.10;;;22.60;48.50;;;;;;5013961;28;20416;-83
2021/05/29 10:00:42;;;;;;;2.10;1.20;;;22.60;48.40;;;;;;4996942;28;20574;-83
2021/05/29 10:03:12;;;;;;;1.77;1.30;;;22.60;48.40;;;;;;4997725;28;20439;-81
2021/05/29 10:05:48;;;;;;;2.00;1.20;;;22.60;48.50;;;;;;5016780;28;20417;-81
2021/05/29 10:08:15;;;;;;;1.67;1.10;;;22.60;48.50;;;;;;5013847;28;20418;-81
2021/05/29 10:10:41;;;;;;;1.50;1.40;;;22.60;48.50;;;;;;4996439;28;20427;-81
2021/05/29 10:13:07;;;;;;;2.03;1.30;;;22.60;48.50;;;;;;5012065;28;20463;-81
2021/05/29 10:15:41;;;;;;;2.27;1.03;;;22.60;48.50;;;;;;4996994;28;20173;-81
2021/05/29 10:18:12;;;;;;;1.33;1.00;;;22.70;48.50;;;;;;4996995;28;20183;-81
2021/05/29 10:20:38;;;;;;;1.57;1.20;;;22.60;48.50;;;;;;5014250;28;20385;-80
2021/05/29 10:29:57;;;;;;;2.03;1.20;;;22.60;48.50;;;;;;5013601;28;20384;-81
2021/05/29 10:32:22;;;;;;;1.90;1.30;;;22.70;48.70;;;;;;4996734;28;20479;-81
2021/05/29 10:35:08;;;;;;;1.73;1.50;;;22.60;48.60;;;;;;4996299;28;20961;-82
2021/05/29 10:37:44;;;;;;;2.13;1.63;;;22.60;48.60;;;;;;5013674;28;20569;-81
2021/05/29 10:40:31;;;;;;;2.03;1.20;;;22.60;48.60;;;;;;5011739;28;20412;-83
2021/05/29 10:43:16;;;;;;;1.70;1.10;;;22.70;48.60;;;;;;5007772;28;20425;-83
2021/05/29 10:45:50;;;;;;;1.20;1.00;;;22.70;48.60;;;;;;5009515;28;20463;-83
2021/05/29 10:48:29;;;;;;;1.57;1.20;;;22.60;48.60;;;;;;5008407;28;20434;-82
2021/05/29 10:51:06;;;;;;;1.37;1.07;;;22.60;48.60;;;;;;5012197;28;20431;-83
2021/05/29 10:53:39;;;;;;;1.30;1.10;;;22.70;48.70;;;;;;5010559;28;20452;-83
2021/05/29 10:56:24;;;;;;;1.30;1.00;;;22.70;48.70;;;;;;4995200;28;20435;-83
2021/05/29 10:59:33;;;;;;;1.40;1.17;;;22.70;48.60;;;;;;5015225;28;20470;-81
2021/05/29 11:02:10;;;;;;;1.47;1.20;;;22.70;48.70;;;;;;5014789;28;20480;-82
2021/05/29 11:04:36;;;;;;;1.40;1.30;;;22.60;48.60;;;;;;5013836;28;20481;-81
2021/05/29 11:08:18;;;;;;;;;;;;;;;;;;;;;
2021/05/29 11:10:36;;;;;;;1.53;1.00;;;22.60;48.60;;;;;;5005847;28;20491;-82
2021/05/29 11:13:04;;;;;;;1.60;1.10;;;22.60;48.70;;;;;;4996249;28;20475;-82
2021/05/29 11:15:58;;;;;;;1.43;1.33;;;22.60;48.70;;;;;;5013335;28;20403;-82
2021/05/29 11:18:24;;;;;;;1.67;1.20;;;22.70;48.70;;;;;;4996040;28;20416;-82
2021/05/29 11:21:04;;;;;;;2.03;1.20;;;22.60;48.70;;;;;;5011601;28;20447;-82
2021/05/29 11:23:30;;;;;;;1.40;1.00;;;22.60;48.70;;;;;;5014060;28;20185;-81
2021/05/29 11:26:08;;;;;;;1.30;1.10;;;22.60;48.70;;;;;;5013203;28;20443;-81
2021/05/29 11:28:35;;;;;;;1.20;1.00;;;22.60;48.70;;;;;;5011723;28;20204;-82
2021/05/29 11:31:07;;;;;;;1.57;1.30;;;22.60;48.70;;;;;;5013191;28;20484;-82
2021/05/29 11:33:52;;;;;;;1.80;1.00;;;22.70;48.70;;;;;;5012184;28;20484;-82
2021/05/29 11:36:33;;;;;;;1.33;1.23;;;22.70;48.70;;;;;;4995258;28;20409;-82
2021/05/29 11:39:11;;;;;;;1.70;1.20;;;22.70;48.70;;;;;;5012393;28;20412;-81
2021/05/29 11:41:40;;;;;;;1.37;1.20;;;22.70;48.80;;;;;;4994903;28;20404;-82
2021/05/29 11:44:23;;;;;;;3.43;1.67;;;22.70;48.80;;;;;;4994762;28;20416;-82
2021/05/29 11:46:52;;;;;;;1.40;1.20;;;22.70;48.80;;;;;;4994769;28;20428;-82
2021/05/29 11:49:21;;;;;;;1.17;1.07;;;22.70;48.80;;;;;;4994861;28;20423;-81
2021/05/29 11:51:47;;;;;;;1.67;1.30;;;22.70;48.80;;;;;;5010156;28;20434;-83
2021/05/29 11:54:20;;;;;;;1.43;1.10;;;22.70;48.80;;;;;;4990208;28;20503;-84
2021/05/29 11:56:51;;;;;;;2.00;1.20;;;22.70;48.80;;;;;;4989706;28;20541;-83
2021/05/29 11:59:26;;;;;;;1.37;1.10;;;22.70;48.80;;;;;;4989980;28;20420;-83
2021/05/29 12:02:15;;;;;;;1.40;1.30;;;22.70;48.80;;;;;;4989486;28;20415;-82
2021/05/29 12:04:50;;;;;;;1.20;1.10;;;22.70;48.80;;;;;;5006471;28;20503;-83
2021/05/29 12:07:15;;;;;;;1.40;1.30;;;22.60;48.70;;;;;;5005406;28;20446;-82
2021/05/29 12:09:42;;;;;;;1.87;1.13;;;22.60;48.70;;;;;;4988313;28;20420;-82
2021/05/29 12:12:15;;;;;;;1.50;1.13;;;22.60;48.70;;;;;;4989327;28;20176;-82
2021/05/29 12:14:42;;;;;;;1.30;1.13;;;22.70;48.70;;;;;;4991005;28;20432;-83
2021/05/29 12:17:15;;;;;;;1.60;0.97;;;22.60;48.60;;;;;;4990208;28;20411;-84
2021/05/29 12:19:42;;;;;;;3.23;1.23;;;22.70;48.70;;;;;;5003890;28;20456;-83
2021/05/29 12:22:31;;;;;;;2.20;1.20;;;22.60;48.70;;;;;;5006345;28;20413;-82
2021/05/29 12:25:11;;;;;;;1.40;1.10;;;22.70;48.80;;;;;;5005485;28;20412;-82
2021/05/29 12:27:41;;;;;;;6.13;1.87;;;22.60;48.70;;;;;;4990214;28;20412;-83
2021/05/29 12:30:15;;;;;;;1.60;1.30;;;22.60;48.70;;;;;;4973766;28;20491;-82
2021/05/29 12:32:57;;;;;;;5.13;1.87;;;22.70;48.80;;;;;;5003389;28;20463;-82
2021/05/29 12:35:40;;;;;;;1.30;1.20;;;22.70;48.80;;;;;;5004713;28;20392;-82
2021/05/29 12:38:20;;;;;;;3.73;1.47;;;22.70;48.80;;;;;;5005468;28;20393;-83
2021/05/29 12:41:13;;;;;;;2.40;1.50;;;22.60;48.70;;;;;;4989365;28;20408;-82
2021/05/29 12:43:41;;;;;;;4.47;1.60;;;22.60;48.70;;;;;;5001418;28;20424;-82
2021/05/29 12:46:21;;;;;;;1.80;1.30;;;22.60;48.70;;;;;;4989381;28;20503;-82
2021/05/29 12:49:15;;;;;;;8.03;1.60;;;22.70;48.70;;;;;;5006594;28;20396;-82
2021/05/29 12:51:42;;;;;;;1.43;1.30;;;22.60;48.70;;;;;;4988654;28;20427;-82
2021/05/29 12:54:12;;;;;;;3.57;1.53;;;22.60;48.70;;;;;;5004623;28;20484;-82
2021/05/29 12:56:55;;;;;;;2.00;1.40;;;22.60;48.70;;;;;;4987119;28;20423;-82
2021/05/29 12:59:31;;;;;;;1.50;1.30;;;22.70;48.70;;;;;;5004111;28;20416;-82
2021/05/29 13:07:40;;;;;;;1.97;1.50;;;22.60;48.70;;;;;;4946095;29;20434;-82
2021/05/29 13:10:26;;;;;;;2.93;1.77;;;22.60;48.70;;;;;;4961682;29;20466;-84
2021/05/29 13:13:06;;;;;;;4.73;2.17;;;22.60;48.70;;;;;;4982473;28;20467;-83
2021/05/29 13:15:32;;;;;;;2.23;1.50;;;22.60;48.70;;;;;;5004746;28;20381;-84
2021/05/29 13:18:15;;;;;;;2.80;1.70;;;22.60;48.70;;;;;;5003597;28;20396;-84
2021/05/29 13:20:42;;;;;;;4.47;1.60;;;22.60;48.70;;;;;;5002770;28;20396;-84
2021/05/29 13:23:10;;;;;;;1.13;0.93;;;22.60;48.70;;;;;;4986268;28;20435;-84
2021/05/29 13:25:46;;;;;;;2.30;1.47;;;22.60;48.70;;;;;;5003936;28;20472;-84
2021/05/29 13:28:15;;;;;;;3.67;1.77;;;22.60;48.70;;;;;;4985818;28;20403;-83
2021/05/29 13:30:45;;;;;;;2.43;1.43;;;22.60;48.70;;;;;;5002810;28;20455;-83
2021/05/29 13:33:16;;;;;;;3.70;1.83;;;22.60;48.70;;;;;;5003377;28;20452;-83
2021/05/29 13:35:43;;;;;;;2.67;1.60;;;22.60;48.70;;;;;;5003204;28;20465;-84